• Join FlightAware (Why Join?)
  • Login
  • US Flag 
02:52PM EDT


 

Airport Tracker/Info


-or-


 

Live Flight TrackerFlight Track Log ✈ N800K ✈ 29-Sep-2013 ✈ KHYW - KGMU

Flight Track Log - Related Links

Times and Time Zones

All times are in EDT time to prevent confusion due to time zone crossing. See the N800K flight status page for this flight to view local times or setup timezone preferences in your user account.

Time Position Orientation Groundspeed Altitude Reporting Facility
EDT Latitude Longitude Course Direction KTS MPH feet Rate Location/Type
04:30PM 33.9123 -79.3750 292° West  Level Estimated
04:31PM 33.9262 -79.4171 292° West  Level FlightAware Approximate
04:32PM 33.9402 -79.4593 292° West  Level FlightAware Approximate
04:33PM 33.9541 -79.5015 292° West  Level FlightAware Approximate
04:34PM 33.9690 -79.5468 292° West  Level FlightAware Approximate
04:35PM 33.9839 -79.5920 292° West  Level FlightAware Approximate
04:36PM 33.9988 -79.6373 292° West  Level FlightAware Approximate
04:37PM 34.0136 -79.6826 292° West  Level FlightAware Approximate
04:38PM 34.0285 -79.7280 292° West  Level FlightAware Approximate
04:39PM 34.0433 -79.7733 292° West  Level FlightAware Approximate
04:40PM 34.0581 -79.8187 292° West  Level FlightAware Approximate
04:41PM 34.0729 -79.8640 291° West  Level FlightAware Approximate
04:42PM 34.0877 -79.9094 291° West  Level FlightAware Approximate
04:43PM 34.1025 -79.9548 291° West  Level FlightAware Approximate
04:44PM 34.1172 -80.0003 291° West  Level FlightAware Approximate
04:45PM 34.1319 -80.0457 291° West  Level FlightAware Approximate
04:46PM 34.1466 -80.0911 291° West  Level FlightAware Approximate
04:47PM 34.1612 -80.1367 291° West  Level FlightAware Approximate
04:48PM 34.1758 -80.1822 291° West  Level FlightAware Approximate
04:49PM 34.1904 -80.2277 291° West  Level FlightAware Approximate
04:50PM 34.2050 -80.2732 291° West  Level FlightAware Approximate
04:51PM 34.2195 -80.3188 291° West  Level FlightAware Approximate
04:52PM 34.2341 -80.3644 291° West  Level FlightAware Approximate
04:53PM 34.2486 -80.4100 291° West  Level FlightAware Approximate
04:54PM 34.2631 -80.4556 291° West  Level FlightAware Approximate
04:55PM 34.2776 -80.5012 291° West  Level FlightAware Approximate
04:56PM 34.2920 -80.5469 291° West  Level FlightAware Approximate
04:57PM 34.3065 -80.5925 291° West  Level FlightAware Approximate
04:58PM 34.3209 -80.6382 291° West  Level FlightAware Approximate
04:59PM 34.3354 -80.6839 291° West  Level FlightAware Approximate
05:00PM 34.3498 -80.7296 291° West  Level FlightAware Approximate
05:01PM 34.3642 -80.7753 291° West  Level FlightAware Approximate
05:02PM 34.3780 -80.8213 290° West  Level FlightAware Approximate
05:03PM 34.3917 -80.8673 290° West  Level FlightAware Approximate
05:04PM 34.4054 -80.9134 290° West  Level FlightAware Approximate
05:04PM 34.4161 -80.9114 290° West 140 161 4,000  Level Atlanta Center
05:05PM 34.4191 -80.9595 290° West  Level FlightAware Approximate
05:05PM 34.4297 -80.9589 289° West 145 167 4,000  Level Atlanta Center
05:06PM 34.4328 -81.0055 290° West  Level FlightAware Approximate
05:06PM 34.4456 -81.0086 291° West 142 163 4,000  Level Atlanta Center
05:07PM 34.4464 -81.0517 290° West  Level FlightAware Approximate
05:07PM 34.4592 -81.0533 290° West 143 165 4,000  Level Atlanta Center
05:08PM 34.4600 -81.0978 290° West  Level FlightAware Approximate
05:08PM 34.4728 -81.0983 290° West 141 162 4,000  Level Atlanta Center
05:09PM 34.4737 -81.1439 290° West  Level FlightAware Approximate
05:09PM 34.4886 -81.1456 292° West 148 170 4,000  Level Atlanta Center
05:10PM 34.5042 -81.1931 292° West 144 166 4,000  Level Atlanta Center
05:12PM 34.5089 -81.2631 290° West  Level FlightAware Approximate
05:19PM 34.6061 -81.5855 290° West  Level FlightAware Approximate
05:20PM 34.6200 -81.6316 290° West  Level FlightAware Approximate
05:21PM 34.6339 -81.6777 290° West  Level FlightAware Approximate
05:22PM 34.6477 -81.7238 290° West  Level FlightAware Approximate
05:23PM 34.6616 -81.7700 290° West  Level FlightAware Approximate
05:24PM 34.6754 -81.8161 290° West  Level FlightAware Approximate
05:25PM 34.6892 -81.8623 290° West  Level FlightAware Approximate
05:26PM 34.7030 -81.9085 290° West  Level FlightAware Approximate
05:27PM 34.7167 -81.9547 290° West  Level FlightAware Approximate
05:28PM 34.7305 -82.0009 290° West  Level FlightAware Approximate
05:29PM 34.7442 -82.0471 290° West  Level FlightAware Approximate
05:30PM 34.7579 -82.0934 290° West  Level FlightAware Approximate
05:31PM 34.7715 -82.1397 290° West  Level FlightAware Approximate
05:32PM 34.7852 -82.1860 290° West  Level FlightAware Approximate
05:33PM 34.7988 -82.2323 290° West  Level FlightAware Approximate
05:34PM 34.8124 -82.2786 290° West  Level FlightAware Approximate
05:35PM 34.8260 -82.3249 290° West  Level FlightAware Approximate
05:36PM 34.8333 -82.3500 290° West  Level FlightAware Approximate
05:37PM 34.8479 -82.3500 290° West  Level Estimated
05:38PM 34.8479 -82.3500 290° West  Level Estimated
05:39PM 34.8479 -82.3500 290° West  Level Estimated
05:40PM 34.8479 -82.3500 290° West  Level Estimated
05:41PM 34.8479 -82.3500 290° West  Level Estimated
05:42PM 34.8479 -82.3500 290° West  Level Estimated
05:43PM 34.8479 -82.3500 290° West  Level Estimated
05:44PM 34.8479 -82.3500 290° West  Level Estimated